Time;durP1;ratioP1;P1;durP2;ratioP2;P2;SDS_P1;SDS_P2;PMS_P1;PMS_P2;Temp;Humidity;BMP_temperature;BMP_pressure;BME280_temperature;BME280_humidity;BME280_pressure;Samples;Min_cycle;Max_cycle;Signal;HPM_P1;HPM_P2
2023/09/03 00:02:24;;;;;;;0.00;0.00;;;;;;;;;;4935376;28;20039;-69
2023/09/03 00:04:52;;;;;;;1.88;1.45;;;;;;;;;;4944766;28;20106;-69
2023/09/03 00:07:19;;;;;;;0.10;0.10;;;;;;;;;;4944251;28;20082;-69
2023/09/03 00:09:46;;;;;;;0.00;0.00;;;;;;;;;;4945284;28;20050;-69
2023/09/03 00:12:14;;;;;;;0.05;0.05;;;;;;;;;;4949912;28;20114;-69
2023/09/03 00:14:41;;;;;;;0.00;0.00;;;;;;;;;;4944438;28;20483;-69
2023/09/03 00:17:14;;;;;;;11.02;10.48;;;;;;;;;;4944201;28;20117;-69
2023/09/03 00:19:42;;;;;;;0.30;0.30;;;;;;;;;;4943237;28;20110;-69
2023/09/03 00:22:10;;;;;;;0.00;0.00;;;;;;;;;;4927113;29;20043;-69
2023/09/03 00:24:37;;;;;;;0.35;0.20;;;;;;;;;;4942067;28;20106;-69
2023/09/03 00:27:05;;;;;;;0.00;0.00;;;;;;;;;;4944036;28;20058;-69
2023/09/03 00:29:34;;;;;;;0.05;0.05;;;;;;;;;;4943863;28;20161;-69
2023/09/03 00:32:01;;;;;;;2.28;2.17;;;;;;;;;;4944360;28;20453;-69
2023/09/03 00:34:29;;;;;;;19.15;17.98;;;;;;;;;;4927035;29;20047;-69
2023/09/03 00:36:56;;;;;;;18.25;17.27;;;;;;;;;;4943245;28;20413;-69
2023/09/03 00:39:24;;;;;;;0.00;0.00;;;;;;;;;;4943069;28;20059;-69
2023/09/03 00:41:51;;;;;;;0.00;0.00;;;;;;;;;;4948324;28;20459;-69
2023/09/03 00:44:18;;;;;;;0.00;0.00;;;;;;;;;;4948968;28;20468;-69
2023/09/03 00:46:46;;;;;;;0.00;0.00;;;;;;;;;;4948511;28;20050;-69
2023/09/03 00:49:14;;;;;;;0.13;0.13;;;;;;;;;;4944900;28;20047;-69
2023/09/03 00:51:42;;;;;;;0.00;0.00;;;;;;;;;;4940460;28;20557;-69
2023/09/03 00:54:09;;;;;;;0.00;0.00;;;;;;;;;;4936051;28;20051;-69
2023/09/03 00:56:38;;;;;;;0.00;0.00;;;;;;;;;;4943868;28;20539;-69
2023/09/03 00:59:06;;;;;;;0.00;0.00;;;;;;;;;;4942491;28;20051;-69
2023/09/03 01:01:35;;;;;;;0.00;0.00;;;;;;;;;;4943012;23;20050;-77
2023/09/03 01:04:03;;;;;;;0.00;0.00;;;;;;;;;;4941880;28;20050;-77
2023/09/03 01:06:31;;;;;;;0.00;0.00;;;;;;;;;;4941964;28;20504;-77
2023/09/03 01:08:58;;;;;;;0.00;0.00;;;;;;;;;;4928899;28;20095;-77
2023/09/03 01:11:45;;;;;;;0.00;0.00;;;;;;;;;;4926234;29;20386;-75
2023/09/03 01:14:19;;;;;;;0.00;0.00;;;;;;;;;;4923878;29;20156;-75
2023/09/03 01:16:54;;;;;;;0.00;0.00;;;;;;;;;;4924306;29;20044;-75
2023/09/03 01:19:41;;;;;;;1.63;1.63;;;;;;;;;;4923544;29;20747;-75
2023/09/03 01:22:26;;;;;;;0.10;0.10;;;;;;;;;;4921727;29;20044;-75
2023/09/03 01:24:56;;;;;;;0.00;0.00;;;;;;;;;;4921812;29;20043;-74
2023/09/03 01:27:47;;;;;;;0.00;0.00;;;;;;;;;;4926735;29;20111;-77
2023/09/03 01:30:15;;;;;;;0.00;0.00;;;;;;;;;;4934053;28;20063;-77
2023/09/03 01:32:43;;;;;;;0.00;0.00;;;;;;;;;;4922860;29;20048;-75
2023/09/03 01:35:11;;;;;;;0.00;0.00;;;;;;;;;;4919810;29;20138;-75
2023/09/03 01:37:39;;;;;;;0.00;0.00;;;;;;;;;;4925174;29;20052;-76
2023/09/03 01:40:07;;;;;;;0.00;0.00;;;;;;;;;;4927143;29;20134;-75
2023/09/03 01:42:34;;;;;;;0.00;0.00;;;;;;;;;;4930246;29;20126;-75
2023/09/03 01:45:02;;;;;;;0.05;0.05;;;;;;;;;;4929300;29;20538;-76
2023/09/03 01:47:30;;;;;;;0.10;0.10;;;;;;;;;;4927834;29;20056;-76
2023/09/03 01:50:02;;;;;;;1.27;0.10;;;;;;;;;;4929069;29;20510;-76
2023/09/03 01:52:40;;;;;;;0.10;0.10;;;;;;;;;;4931356;29;20052;-75
2023/09/03 01:55:10;;;;;;;29.58;27.83;;;;;;;;;;4927103;29;20441;-75
2023/09/03 01:57:43;;;;;;;0.00;0.00;;;;;;;;;;4930724;29;20509;-75
2023/09/03 02:00:16;;;;;;;0.13;0.13;;;;;;;;;;4928667;29;20051;-75
2023/09/03 02:02:47;;;;;;;3.63;3.47;;;;;;;;;;4929622;29;20122;-75
2023/09/03 02:05:15;;;;;;;0.00;0.00;;;;;;;;;;4924282;29;20048;-76
2023/09/03 02:07:43;;;;;;;1.67;1.63;;;;;;;;;;4929105;29;20044;-76
2023/09/03 02:10:11;;;;;;;0.05;0.05;;;;;;;;;;4929099;29;20047;-76
2023/09/03 02:12:38;;;;;;;0.00;0.00;;;;;;;;;;4928545;29;20051;-75
2023/09/03 02:15:06;;;;;;;0.00;0.00;;;;;;;;;;4924795;29;20135;-75
2023/09/03 02:17:33;;;;;;;0.20;0.20;;;;;;;;;;4923175;29;20132;-75
2023/09/03 02:20:01;;;;;;;0.32;0.20;;;;;;;;;;4930034;29;20127;-75
2023/09/03 02:22:30;;;;;;;0.00;0.00;;;;;;;;;;4931616;29;20051;-75
2023/09/03 02:24:58;;;;;;;0.00;0.00;;;;;;;;;;4927242;29;20044;-75
2023/09/03 02:27:25;;;;;;;0.00;0.00;;;;;;;;;;4929750;29;20086;-75
2023/09/03 02:29:53;;;;;;;0.00;0.00;;;;;;;;;;4926837;29;20415;-76
2023/09/03 02:32:21;;;;;;;0.00;0.00;;;;;;;;;;4929004;29;20123;-75
2023/09/03 02:34:48;;;;;;;0.00;0.00;;;;;;;;;;4929173;29;20052;-76
2023/09/03 02:37:17;;;;;;;0.00;0.00;;;;;;;;;;4923847;29;20035;-75
2023/09/03 02:39:44;;;;;;;0.00;0.00;;;;;;;;;;4934495;29;20071;-76
2023/09/03 02:42:12;;;;;;;0.00;0.00;;;;;;;;;;4924857;29;20667;-75
2023/09/03 02:44:39;;;;;;;0.10;0.10;;;;;;;;;;4927834;29;20093;-76
2023/09/03 02:47:06;;;;;;;0.50;0.50;;;;;;;;;;4926147;29;20423;-76
2023/09/03 02:49:34;;;;;;;1.45;0.45;;;;;;;;;;4928394;29;20073;-75
2023/09/03 02:52:02;;;;;;;0.00;0.00;;;;;;;;;;4930114;29;20106;-75
2023/09/03 02:54:29;;;;;;;0.00;0.00;;;;;;;;;;4927306;29;20437;-75
2023/09/03 02:56:56;;;;;;;0.00;0.00;;;;;;;;;;4927425;29;20317;-75
2023/09/03 02:59:24;;;;;;;0.00;0.00;;;;;;;;;;4931718;28;20051;-75
2023/09/03 03:01:52;;;;;;;0.00;0.00;;;;;;;;;;4927988;29;20048;-76
2023/09/03 03:04:20;;;;;;;0.10;0.10;;;;;;;;;;4928197;29;20050;-76
2023/09/03 03:06:48;;;;;;;0.08;0.08;;;;;;;;;;4928394;29;20134;-76
2023/09/03 03:09:15;;;;;;;30.92;29.05;;;;;;;;;;4926943;29;20732;-76
2023/09/03 03:11:46;;;;;;;0.03;0.03;;;;;;;;;;4930035;29;20059;-75
2023/09/03 03:14:14;;;;;;;0.00;0.00;;;;;;;;;;4930185;29;20258;-76
2023/09/03 03:16:41;;;;;;;0.00;0.00;;;;;;;;;;4926789;29;20127;-75
2023/09/03 03:19:12;;;;;;;0.00;0.00;;;;;;;;;;4924466;29;20056;-75
2023/09/03 03:21:39;;;;;;;0.00;0.00;;;;;;;;;;4930274;29;20486;-75
2023/09/03 03:24:08;;;;;;;0.03;0.03;;;;;;;;;;4926557;29;20395;-75
2023/09/03 03:26:38;;;;;;;0.00;0.00;;;;;;;;;;4928145;29;20040;-76
2023/09/03 03:29:09;;;;;;;0.00;0.00;;;;;;;;;;4926850;29;20044;-76
2023/09/03 03:31:43;;;;;;;0.15;0.15;;;;;;;;;;4926080;29;20062;-75
2023/09/03 03:34:12;;;;;;;0.00;0.00;;;;;;;;;;4925228;29;20126;-75
2023/09/03 03:36:40;;;;;;;0.00;0.00;;;;;;;;;;4927843;29;20048;-75
2023/09/03 03:39:08;;;;;;;7.53;7.10;;;;;;;;;;4925730;29;20051;-76
2023/09/03 03:41:37;;;;;;;0.35;0.20;;;;;;;;;;4925883;29;20051;-76
2023/09/03 03:44:07;;;;;;;0.00;0.00;;;;;;;;;;4927230;29;20429;-75
2023/09/03 03:46:35;;;;;;;0.00;0.00;;;;;;;;;;4924569;29;20052;-76
2023/09/03 03:49:03;;;;;;;0.10;0.10;;;;;;;;;;4924559;29;20130;-77
2023/09/03 03:51:30;;;;;;;12.30;11.60;;;;;;;;;;4926538;29;20515;-77
2023/09/03 03:54:04;;;;;;;5.85;5.57;;;;;;;;;;4940661;28;20122;-76
2023/09/03 03:56:32;;;;;;;0.00;0.00;;;;;;;;;;4931333;29;20059;-75
2023/09/03 03:59:00;;;;;;;0.00;0.00;;;;;;;;;;4925038;29;20110;-76
2023/09/03 04:01:27;;;;;;;0.00;0.00;;;;;;;;;;4930005;29;20044;-76
2023/09/03 04:03:55;;;;;;;0.28;0.10;;;;;;;;;;4928214;29;20467;-75
2023/09/03 04:06:23;;;;;;;9.27;8.68;;;;;;;;;;4917632;29;20067;-76
2023/09/03 04:08:51;;;;;;;0.00;0.00;;;;;;;;;;4927238;28;20052;-76
2023/09/03 04:11:19;;;;;;;0.00;0.00;;;;;;;;;;4927431;29;20300;-75
2023/09/03 04:13:46;;;;;;;0.00;0.00;;;;;;;;;;4927065;29;20486;-76
2023/09/03 04:16:16;;;;;;;0.00;0.00;;;;;;;;;;4924173;29;20051;-76
2023/09/03 04:18:46;;;;;;;0.00;0.00;;;;;;;;;;4928749;29;20050;-76
2023/09/03 04:21:14;;;;;;;0.00;0.00;;;;;;;;;;4924810;29;20044;-76
2023/09/03 04:23:41;;;;;;;0.00;0.00;;;;;;;;;;4923786;29;20043;-76
2023/09/03 04:26:09;;;;;;;0.00;0.00;;;;;;;;;;4925816;29;20050;-76
2023/09/03 04:28:44;;;;;;;0.00;0.00;;;;;;;;;;4927353;29;20054;-76
2023/09/03 04:31:13;;;;;;;0.00;0.00;;;;;;;;;;4926927;29;20051;-76
2023/09/03 04:33:41;;;;;;;0.00;0.00;;;;;;;;;;4925974;29;20051;-76
2023/09/03 04:36:10;;;;;;;0.00;0.00;;;;;;;;;;4925879;29;20040;-76
2023/09/03 04:38:39;;;;;;;0.00;0.00;;;;;;;;;;4920943;29;20050;-75
2023/09/03 04:41:08;;;;;;;0.00;0.00;;;;;;;;;;4927273;29;20051;-76
2023/09/03 04:44:06;;;;;;;0.00;0.00;;;;;;;;;;4925357;29;20044;-76
2023/09/03 04:46:37;;;;;;;0.00;0.00;;;;;;;;;;4916079;29;20524;-76
2023/09/03 04:49:05;;;;;;;0.03;0.03;;;;;;;;;;4920888;29;20095;-76
2023/09/03 04:51:33;;;;;;;5.00;4.78;;;;;;;;;;4927348;29;20545;-76
2023/09/03 04:54:02;;;;;;;0.00;0.00;;;;;;;;;;4915702;29;20044;-76
2023/09/03 04:56:30;;;;;;;0.10;0.10;;;;;;;;;;4925278;29;20035;-75
2023/09/03 04:58:58;;;;;;;0.10;0.10;;;;;;;;;;4925767;29;20050;-76
2023/09/03 05:01:25;;;;;;;0.00;0.00;;;;;;;;;;4917735;29;20048;-76
2023/09/03 05:03:56;;;;;;;0.10;0.10;;;;;;;;;;4925743;28;20060;-75
2023/09/03 05:06:26;;;;;;;0.00;0.00;;;;;;;;;;4922453;29;20404;-76
2023/09/03 05:08:56;;;;;;;2.17;2.08;;;;;;;;;;4912695;29;20040;-76
2023/09/03 05:11:25;;;;;;;0.00;0.00;;;;;;;;;;4917994;28;20052;-76
2023/09/03 05:13:57;;;;;;;0.00;0.00;;;;;;;;;;4917366;29;21198;-77
2023/09/03 05:16:26;;;;;;;0.00;0.00;;;;;;;;;;4918172;29;20046;-77
2023/09/03 05:19:04;;;;;;;0.00;0.00;;;;;;;;;;4920436;29;20410;-77
2023/09/03 05:21:34;;;;;;;0.00;0.00;;;;;;;;;;4918406;29;20414;-77
2023/09/03 05:24:05;;;;;;;4.03;3.83;;;;;;;;;;4923962;29;20046;-77
2023/09/03 05:26:36;;;;;;;0.03;0.03;;;;;;;;;;4939987;28;20292;-77
2023/09/03 05:29:08;;;;;;;0.52;0.52;;;;;;;;;;4925633;29;20066;-77
2023/09/03 05:31:35;;;;;;;0.00;0.00;;;;;;;;;;4926146;29;20458;-76
2023/09/03 05:34:03;;;;;;;1.20;1.20;;;;;;;;;;4920458;29;20585;-77
2023/09/03 05:36:32;;;;;;;0.00;0.00;;;;;;;;;;4927709;29;20040;-77
2023/09/03 05:39:01;;;;;;;0.00;0.00;;;;;;;;;;4923733;29;20039;-76
2023/09/03 05:41:33;;;;;;;0.20;0.20;;;;;;;;;;4927540;29;20047;-77
2023/09/03 05:44:06;;;;;;;0.00;0.00;;;;;;;;;;4925587;29;20048;-77
2023/09/03 05:46:34;;;;;;;0.00;0.00;;;;;;;;;;4928206;29;20051;-77
2023/09/03 05:49:02;;;;;;;0.00;0.00;;;;;;;;;;4928293;29;20035;-77
2023/09/03 05:51:29;;;;;;;0.00;0.00;;;;;;;;;;4928437;29;20047;-76
2023/09/03 05:53:57;;;;;;;0.00;0.00;;;;;;;;;;4919864;29;20047;-77
2023/09/03 05:56:24;;;;;;;0.25;0.25;;;;;;;;;;4926170;29;20056;-77
2023/09/03 05:58:52;;;;;;;0.10;0.10;;;;;;;;;;4924165;29;20146;-76
2023/09/03 06:01:19;;;;;;;0.00;0.00;;;;;;;;;;4924541;28;20135;-77
2023/09/03 06:03:47;;;;;;;0.20;0.20;;;;;;;;;;4931446;29;20130;-76
2023/09/03 06:06:14;;;;;;;0.00;0.00;;;;;;;;;;4931310;29;20044;-76
2023/09/03 06:08:42;;;;;;;0.10;0.10;;;;;;;;;;4930771;29;20047;-76
2023/09/03 06:11:09;;;;;;;21.58;20.23;;;;;;;;;;4930025;29;20044;-77
2023/09/03 06:13:37;;;;;;;0.00;0.00;;;;;;;;;;4931224;29;20143;-76
2023/09/03 06:16:04;;;;;;;0.00;0.00;;;;;;;;;;4931645;29;20051;-77
2023/09/03 06:18:32;;;;;;;0.00;0.00;;;;;;;;;;4931206;29;20055;-76
2023/09/03 06:20:59;;;;;;;0.00;0.00;;;;;;;;;;4931550;29;20052;-76
2023/09/03 06:23:27;;;;;;;0.00;0.00;;;;;;;;;;4931356;29;20134;-77
2023/09/03 06:25:54;;;;;;;0.00;0.00;;;;;;;;;;4931388;29;20059;-76
2023/09/03 06:28:22;;;;;;;0.00;0.00;;;;;;;;;;4931606;29;20107;-77
2023/09/03 06:30:52;;;;;;;8.50;7.88;;;;;;;;;;4931987;29;20119;-76
2023/09/03 06:33:19;;;;;;;1.30;0.38;;;;;;;;;;4931369;29;20079;-77
2023/09/03 06:35:47;;;;;;;0.13;0.13;;;;;;;;;;4931111;29;20186;-76
2023/09/03 06:38:14;;;;;;;0.00;0.00;;;;;;;;;;4931833;29;20138;-76
2023/09/03 06:40:41;;;;;;;0.00;0.00;;;;;;;;;;4930323;29;20059;-77
2023/09/03 06:43:09;;;;;;;0.00;0.00;;;;;;;;;;4931299;29;20044;-76
2023/09/03 06:45:36;;;;;;;10.50;9.77;;;;;;;;;;4931887;29;20091;-78
2023/09/03 06:48:04;;;;;;;0.10;0.10;;;;;;;;;;4930933;29;20127;-78
2023/09/03 06:50:31;;;;;;;0.00;0.00;;;;;;;;;;4931861;29;20502;-76
2023/09/03 06:52:58;;;;;;;0.00;0.00;;;;;;;;;;4932174;29;20126;-76
2023/09/03 06:55:26;;;;;;;7.22;6.85;;;;;;;;;;4931392;29;20063;-77
2023/09/03 06:57:53;;;;;;;0.20;0.20;;;;;;;;;;4930892;29;20103;-76
2023/09/03 07:00:20;;;;;;;0.75;0.75;;;;;;;;;;4931187;29;20102;-76
2023/09/03 07:02:48;;;;;;;0.13;0.13;;;;;;;;;;4984331;23;20145;-71
2023/09/03 07:05:15;;;;;;;10.10;9.10;;;;;;;;;;4970993;28;20133;-71
2023/09/03 07:07:43;;;;;;;15.85;14.95;;;;;;;;;;4965905;28;20370;-70
2023/09/03 07:10:11;;;;;;;0.63;0.63;;;;;;;;;;4964431;28;20058;-71
2023/09/03 07:12:39;;;;;;;2.92;2.83;;;;;;;;;;4960517;28;20138;-71
2023/09/03 07:15:07;;;;;;;0.00;0.00;;;;;;;;;;4969155;28;20073;-72
2023/09/03 07:17:35;;;;;;;0.10;0.10;;;;;;;;;;4945936;28;20055;-71
2023/09/03 07:20:02;;;;;;;0.00;0.00;;;;;;;;;;4943263;28;20501;-72
2023/09/03 07:22:30;;;;;;;0.00;0.00;;;;;;;;;;4956637;28;20046;-70
2023/09/03 07:24:57;;;;;;;0.25;0.25;;;;;;;;;;4957718;28;20039;-72
2023/09/03 07:27:25;;;;;;;0.40;0.40;;;;;;;;;;4958587;28;20065;-72
2023/09/03 07:29:53;;;;;;;0.00;0.00;;;;;;;;;;4959824;28;20047;-71
2023/09/03 07:32:21;;;;;;;0.00;0.00;;;;;;;;;;4955039;28;20035;-71
2023/09/03 07:34:49;;;;;;;0.00;0.00;;;;;;;;;;4953827;28;20058;-72
2023/09/03 07:37:17;;;;;;;0.00;0.00;;;;;;;;;;4952053;28;20050;-71
2023/09/03 07:39:46;;;;;;;0.00;0.00;;;;;;;;;;4955403;28;20553;-71
2023/09/03 07:42:14;;;;;;;0.05;0.05;;;;;;;;;;4948429;28;20496;-72
2023/09/03 07:44:41;;;;;;;0.05;0.05;;;;;;;;;;4954064;28;20497;-71
2023/09/03 07:47:09;;;;;;;3.08;2.92;;;;;;;;;;4951371;28;20054;-71
2023/09/03 07:49:36;;;;;;;0.55;0.55;;;;;;;;;;4953305;28;20050;-72
2023/09/03 07:52:04;;;;;;;0.00;0.00;;;;;;;;;;4944697;28;20437;-72
2023/09/03 07:54:31;;;;;;;0.13;0.13;;;;;;;;;;4949412;28;20057;-70
2023/09/03 07:56:59;;;;;;;0.00;0.00;;;;;;;;;;4953614;28;20352;-71
2023/09/03 07:59:26;;;;;;;0.08;0.05;;;;;;;;;;4955871;28;20082;-71
2023/09/03 08:01:54;;;;;;;0.00;0.00;;;;;;;;;;4954625;28;20054;-71
2023/09/03 08:04:24;;;;;;;11.02;10.43;;;;;;;;;;4956657;28;20070;-71
2023/09/03 08:06:51;;;;;;;0.00;0.00;;;;;;;;;;4971003;28;20675;-70
2023/09/03 08:09:22;;;;;;;0.98;0.10;;;;;;;;;;4951280;28;20134;-73
2023/09/03 08:11:51;;;;;;;10.37;9.63;;;;;;;;;;4954890;28;20078;-72
2023/09/03 08:14:18;;;;;;;0.20;0.20;;;;;;;;;;4948197;28;20291;-71
2023/09/03 08:16:46;;;;;;;0.75;0.20;;;;;;;;;;4963129;28;20058;-73
2023/09/03 08:19:13;;;;;;;0.00;0.00;;;;;;;;;;4953957;28;20043;-71
2023/09/03 08:21:41;;;;;;;0.10;0.10;;;;;;;;;;4959254;28;20509;-71
2023/09/03 08:24:09;;;;;;;0.00;0.00;;;;;;;;;;4957442;28;20071;-72
2023/09/03 08:26:37;;;;;;;0.90;0.90;;;;;;;;;;4946079;28;20501;-72
2023/09/03 08:29:04;;;;;;;1.27;1.27;;;;;;;;;;4959408;28;20042;-72
2023/09/03 08:31:32;;;;;;;5.45;5.15;;;;;;;;;;4952791;28;20127;-73
2023/09/03 08:33:59;;;;;;;1.40;1.40;;;;;;;;;;4964186;28;20054;-72
2023/09/03 08:36:27;;;;;;;7.60;7.13;;;;;;;;;;4955773;28;20059;-72
2023/09/03 08:38:54;;;;;;;0.00;0.00;;;;;;;;;;4956099;28;20105;-72
2023/09/03 08:41:23;;;;;;;0.00;0.00;;;;;;;;;;4960226;28;20568;-72
2023/09/03 08:43:54;;;;;;;0.00;0.00;;;;;;;;;;4947103;28;20102;-72
2023/09/03 08:46:24;;;;;;;8.27;7.78;;;;;;;;;;4955122;28;20528;-72
2023/09/03 08:48:53;;;;;;;0.03;0.03;;;;;;;;;;4957235;28;20101;-73
2023/09/03 08:51:20;;;;;;;3.47;3.30;;;;;;;;;;4971951;28;20046;-72
2023/09/03 08:53:49;;;;;;;12.75;12.05;;;;;;;;;;4957374;28;20051;-72
2023/09/03 08:56:16;;;;;;;6.15;5.78;;;;;;;;;;4941794;28;20494;-72
2023/09/03 08:58:44;;;;;;;7.65;7.22;;;;;;;;;;4958122;28;20055;-73
2023/09/03 09:01:12;;;;;;;0.20;0.20;;;;;;;;;;4959193;28;20086;-71
2023/09/03 09:03:43;;;;;;;0.50;0.47;;;;;;;;;;4953760;28;20039;-71
2023/09/03 09:06:12;;;;;;;6.20;5.72;;;;;;;;;;4970392;28;20062;-72
2023/09/03 09:08:41;;;;;;;0.08;0.08;;;;;;;;;;4959515;28;20121;-72
2023/09/03 09:11:12;;;;;;;0.00;0.00;;;;;;;;;;4957948;28;20051;-73
2023/09/03 09:13:41;;;;;;;0.00;0.00;;;;;;;;;;4958517;28;20219;-71
2023/09/03 09:16:09;;;;;;;5.47;5.10;;;;;;;;;;4979457;28;20501;-73
2023/09/03 09:18:37;;;;;;;0.47;0.47;;;;;;;;;;4959057;28;20118;-73
2023/09/03 09:21:05;;;;;;;0.10;0.10;;;;;;;;;;4964491;28;20129;-72
2023/09/03 09:23:33;;;;;;;0.30;0.30;;;;;;;;;;4958246;28;20063;-72
2023/09/03 09:26:01;;;;;;;5.78;5.25;;;;;;;;;;4964809;28;20094;-72
2023/09/03 09:28:28;;;;;;;11.52;10.82;;;;;;;;;;4961626;28;20081;-72
2023/09/03 09:30:56;;;;;;;0.38;0.38;;;;;;;;;;4957300;28;20461;-72
2023/09/03 09:33:24;;;;;;;0.00;0.00;;;;;;;;;;4959901;28;20069;-73
2023/09/03 09:35:53;;;;;;;0.00;0.00;;;;;;;;;;4970671;28;20047;-72
2023/09/03 09:38:34;;;;;;;0.05;0.05;;;;;;;;;;4962726;28;20051;-72
2023/09/03 09:41:20;;;;;;;1.08;1.08;;;;;;;;;;4965432;28;20394;-72
2023/09/03 09:43:47;;;;;;;0.00;0.00;;;;;;;;;;4956927;28;20492;-73
2023/09/03 09:46:36;;;;;;;0.22;0.22;;;;;;;;;;4962290;28;20049;-73
2023/09/03 09:49:03;;;;;;;0.10;0.10;;;;;;;;;;4955269;28;20039;-72
2023/09/03 09:51:31;;;;;;;10.32;9.63;;;;;;;;;;4948039;28;20101;-72
2023/09/03 09:54:03;;;;;;;0.08;0.08;;;;;;;;;;4946351;28;20055;-72
2023/09/03 09:56:32;;;;;;;0.00;0.00;;;;;;;;;;4949334;28;20505;-72
2023/09/03 09:59:00;;;;;;;0.00;0.00;;;;;;;;;;4954958;28;20054;-72
2023/09/03 10:01:41;;;;;;;0.93;0.93;;;;;;;;;;4958693;28;20556;-72
2023/09/03 10:04:08;;;;;;;4.45;4.22;;;;;;;;;;4947225;28;20520;-73
2023/09/03 10:06:37;;;;;;;5.65;5.35;;;;;;;;;;4951001;28;20046;-72
2023/09/03 10:09:07;;;;;;;0.00;0.00;;;;;;;;;;4953501;28;20592;-73
2023/09/03 10:11:35;;;;;;;0.03;0.03;;;;;;;;;;4963454;28;20050;-74
2023/09/03 10:14:02;;;;;;;18.40;16.75;;;;;;;;;;4947816;28;20048;-75
2023/09/03 10:16:30;;;;;;;0.22;0.22;;;;;;;;;;4961011;28;20047;-74
2023/09/03 10:19:02;;;;;;;0.00;0.00;;;;;;;;;;4956537;28;20109;-73
2023/09/03 10:21:31;;;;;;;0.10;0.10;;;;;;;;;;4956590;28;20054;-73
2023/09/03 10:24:20;;;;;;;4.82;4.53;;;;;;;;;;4956224;28;20036;-72
2023/09/03 10:26:50;;;;;;;0.00;0.00;;;;;;;;;;4954686;28;20182;-73
2023/09/03 10:29:20;;;;;;;3.33;3.17;;;;;;;;;;4951912;28;20043;-73
2023/09/03 10:31:48;;;;;;;5.18;4.95;;;;;;;;;;4953942;28;20148;-73
2023/09/03 10:34:16;;;;;;;26.73;24.95;;;;;;;;;;4952714;28;20428;-73
2023/09/03 10:37:20;;;;;;;10.07;9.43;;;;;;;;;;4954327;28;20063;-73
2023/09/03 10:39:48;;;;;;;11.02;10.30;;;;;;;;;;4907133;29;20051;-73
2023/09/03 10:42:18;;;;;;;0.00;0.00;;;;;;;;;;4945326;28;20055;-73
2023/09/03 10:44:52;;;;;;;0.00;0.00;;;;;;;;;;4957013;28;20563;-72
2023/09/03 10:47:20;;;;;;;3.00;2.90;;;;;;;;;;4954262;28;20412;-73
2023/09/03 10:49:48;;;;;;;0.85;0.85;;;;;;;;;;4956067;28;20130;-73
2023/09/03 10:52:30;;;;;;;0.00;0.00;;;;;;;;;;4960505;28;20043;-72
2023/09/03 10:55:16;;;;;;;0.10;0.10;;;;;;;;;;4952927;28;20138;-73
2023/09/03 10:57:45;;;;;;;7.10;6.65;;;;;;;;;;4953037;28;20965;-73
2023/09/03 11:00:15;;;;;;;0.00;0.00;;;;;;;;;;4946637;28;20063;-73
2023/09/03 11:02:43;;;;;;;0.00;0.00;;;;;;;;;;4967935;28;20109;-73
2023/09/03 11:05:20;;;;;;;1.00;0.95;;;;;;;;;;4950710;28;20047;-72
2023/09/03 11:08:10;;;;;;;0.00;0.00;;;;;;;;;;4960230;28;20146;-73
2023/09/03 11:10:38;;;;;;;0.00;0.00;;;;;;;;;;4951028;28;20062;-73
2023/09/03 11:13:09;;;;;;;35.08;32.88;;;;;;;;;;4960157;28;20043;-72
2023/09/03 11:15:55;;;;;;;0.00;0.00;;;;;;;;;;4952200;28;20066;-73
2023/09/03 11:18:26;;;;;;;25.83;24.20;;;;;;;;;;4951725;28;20130;-72
2023/09/03 11:20:58;;;;;;;3.65;3.50;;;;;;;;;;4939910;29;20053;-73
2023/09/03 11:23:27;;;;;;;0.00;0.00;;;;;;;;;;4948084;28;20055;-73
2023/09/03 11:25:59;;;;;;;0.00;0.00;;;;;;;;;;4952726;28;20047;-73
2023/09/03 11:28:26;;;;;;;0.00;0.00;;;;;;;;;;4966517;28;20134;-73
2023/09/03 11:31:00;;;;;;;0.00;0.00;;;;;;;;;;4951470;28;20505;-72
2023/09/03 11:33:28;;;;;;;3.58;3.38;;;;;;;;;;4958781;28;20066;-73
2023/09/03 11:35:56;;;;;;;0.10;0.10;;;;;;;;;;4955142;28;20405;-71
2023/09/03 11:38:25;;;;;;;0.55;0.55;;;;;;;;;;4955746;28;20065;-72
2023/09/03 11:40:56;;;;;;;5.10;4.85;;;;;;;;;;4947497;28;20489;-73
2023/09/03 11:43:25;;;;;;;0.00;0.00;;;;;;;;;;4954555;28;20521;-73
2023/09/03 11:45:52;;;;;;;0.00;0.00;;;;;;;;;;4958541;28;20062;-73
2023/09/03 11:48:27;;;;;;;0.10;0.10;;;;;;;;;;4950775;28;20055;-73
2023/09/03 11:50:54;;;;;;;0.00;0.00;;;;;;;;;;4958840;28;20086;-73
2023/09/03 11:53:24;;;;;;;0.85;0.85;;;;;;;;;;4966344;28;20067;-73
2023/09/03 11:55:54;;;;;;;0.00;0.00;;;;;;;;;;4947408;28;20059;-73
2023/09/03 11:58:24;;;;;;;0.00;0.00;;;;;;;;;;4953556;28;20291;-72
2023/09/03 12:00:51;;;;;;;0.65;0.65;;;;;;;;;;4950262;28;20046;-71
2023/09/03 12:03:19;;;;;;;0.00;0.00;;;;;;;;;;4958184;28;20061;-72
2023/09/03 12:05:47;;;;;;;0.10;0.10;;;;;;;;;;4949902;28;20061;-72
2023/09/03 12:08:15;;;;;;;17.10;15.90;;;;;;;;;;4959361;28;20110;-74
2023/09/03 12:10:47;;;;;;;0.00;0.00;;;;;;;;;;4948607;28;20051;-71
2023/09/03 12:13:28;;;;;;;0.22;0.22;;;;;;;;;;4946220;28;20052;-71
2023/09/03 12:16:06;;;;;;;0.70;0.70;;;;;;;;;;4942884;28;20058;-72
2023/09/03 12:18:34;;;;;;;0.80;0.80;;;;;;;;;;4947583;28;20402;-71
2023/09/03 12:21:03;;;;;;;4.88;4.68;;;;;;;;;;4950877;28;20556;-71
2023/09/03 12:23:31;;;;;;;0.00;0.00;;;;;;;;;;4940823;28;20059;-72
2023/09/03 12:25:59;;;;;;;15.05;14.10;;;;;;;;;;4951018;28;20130;-71
2023/09/03 12:28:34;;;;;;;39.47;36.97;;;;;;;;;;4958090;28;20310;-71
2023/09/03 12:31:02;;;;;;;3.13;3.03;;;;;;;;;;4954051;28;20051;-72
2023/09/03 12:33:33;;;;;;;0.00;0.00;;;;;;;;;;4955244;28;20129;-72
2023/09/03 12:36:04;;;;;;;39.67;37.17;;;;;;;;;;4966326;28;20050;-73
2023/09/03 12:38:32;;;;;;;72.82;68.22;;;;;;;;;;4966695;28;20054;-71
2023/09/03 12:40:59;;;;;;;0.00;0.00;;;;;;;;;;4962423;28;20493;-71
2023/09/03 12:43:36;;;;;;;0.00;0.00;;;;;;;;;;4962059;28;20073;-71
2023/09/03 12:46:04;;;;;;;0.00;0.00;;;;;;;;;;4952700;28;20035;-71
2023/09/03 12:48:31;;;;;;;0.00;0.00;;;;;;;;;;4949926;28;20106;-71
2023/09/03 12:50:59;;;;;;;0.03;0.03;;;;;;;;;;4958790;28;20509;-71
2023/09/03 12:53:26;;;;;;;0.00;0.00;;;;;;;;;;4958715;28;20050;-71
2023/09/03 12:55:55;;;;;;;3.92;3.72;;;;;;;;;;4954614;28;20063;-72
2023/09/03 12:58:23;;;;;;;32.85;30.65;;;;;;;;;;4945445;29;20059;-72
2023/09/03 13:00:51;;;;;;;0.00;0.00;;;;;;;;;;4940674;28;20062;-72
2023/09/03 13:03:18;;;;;;;0.00;0.00;;;;;;;;;;4989176;23;20138;-73
2023/09/03 13:05:46;;;;;;;0.00;0.00;;;;;;;;;;4967921;28;20105;-71
2023/09/03 13:08:15;;;;;;;0.00;0.00;;;;;;;;;;4977788;28;20082;-72
2023/09/03 13:10:42;;;;;;;0.00;0.00;;;;;;;;;;4977012;28;20505;-70
2023/09/03 13:13:13;;;;;;;4.55;4.35;;;;;;;;;;4980427;28;20047;-71
2023/09/03 13:15:41;;;;;;;92.10;86.00;;;;;;;;;;4973475;28;20054;-69
2023/09/03 13:18:08;;;;;;;6.18;5.82;;;;;;;;;;4965797;28;20129;-71
2023/09/03 13:20:36;;;;;;;0.00;0.00;;;;;;;;;;4973151;28;20077;-72
2023/09/03 13:23:03;;;;;;;0.00;0.00;;;;;;;;;;4978315;28;20076;-71
2023/09/03 13:25:31;;;;;;;5.15;4.85;;;;;;;;;;4969491;28;20431;-72
2023/09/03 13:28:01;;;;;;;0.00;0.00;;;;;;;;;;4958337;28;20051;-70
2023/09/03 13:30:29;;;;;;;0.00;0.00;;;;;;;;;;4980651;28;20047;-73
2023/09/03 13:32:57;;;;;;;0.00;0.00;;;;;;;;;;4977232;28;20046;-71
2023/09/03 13:35:27;;;;;;;0.03;0.00;;;;;;;;;;4973937;28;20050;-72
2023/09/03 13:37:54;;;;;;;12.40;11.55;;;;;;;;;;4977628;28;20527;-71
2023/09/03 13:40:21;;;;;;;0.55;0.55;;;;;;;;;;4975880;28;20448;-72
2023/09/03 13:42:49;;;;;;;1.08;0.20;;;;;;;;;;4977355;28;20055;-71
2023/09/03 13:45:16;;;;;;;27.45;25.60;;;;;;;;;;4982807;28;20540;-72
2023/09/03 13:47:44;;;;;;;2.33;2.22;;;;;;;;;;4972389;28;20183;-72
2023/09/03 13:50:11;;;;;;;0.00;0.00;;;;;;;;;;4988161;28;20436;-71
2023/09/03 13:52:39;;;;;;;0.00;0.00;;;;;;;;;;4988719;28;20078;-72
2023/09/03 13:55:07;;;;;;;2.38;2.28;;;;;;;;;;4958689;28;20053;-71
2023/09/03 13:57:34;;;;;;;0.00;0.00;;;;;;;;;;4969318;28;20055;-71
2023/09/03 14:00:03;;;;;;;0.13;0.13;;;;;;;;;;4962706;28;20453;-71
2023/09/03 14:02:33;;;;;;;0.10;0.10;;;;;;;;;;4962090;28;20065;-70
2023/09/03 14:05:00;;;;;;;0.25;0.10;;;;;;;;;;4966768;28;20042;-72
2023/09/03 14:07:28;;;;;;;61.70;57.25;;;;;;;;;;4953257;28;20055;-72
2023/09/03 14:09:56;;;;;;;0.00;0.00;;;;;;;;;;4946830;28;20047;-71
2023/09/03 14:12:26;;;;;;;4.05;3.83;;;;;;;;;;4968057;28;20042;-71
2023/09/03 14:14:54;;;;;;;0.00;0.00;;;;;;;;;;4976536;28;20085;-74
2023/09/03 14:17:21;;;;;;;8.65;8.10;;;;;;;;;;4969143;28;20065;-71
2023/09/03 14:19:49;;;;;;;2.10;2.00;;;;;;;;;;4968306;28;20055;-71
2023/09/03 14:22:17;;;;;;;0.00;0.00;;;;;;;;;;4969060;28;20133;-72
2023/09/03 14:24:45;;;;;;;0.00;0.00;;;;;;;;;;4977838;28;20070;-73
2023/09/03 14:27:12;;;;;;;5.13;4.80;;;;;;;;;;4984474;28;20043;-71
2023/09/03 14:29:40;;;;;;;3.80;3.60;;;;;;;;;;4984910;28;20042;-72
2023/09/03 14:32:07;;;;;;;5.40;5.13;;;;;;;;;;4987532;28;20100;-72
2023/09/03 14:34:35;;;;;;;0.00;0.00;;;;;;;;;;4988423;28;20050;-73
2023/09/03 14:37:02;;;;;;;0.00;0.00;;;;;;;;;;4976847;28;20059;-71
2023/09/03 14:39:30;;;;;;;0.00;0.00;;;;;;;;;;4976423;28;20046;-71
2023/09/03 14:41:57;;;;;;;0.00;0.00;;;;;;;;;;4976067;28;20549;-72
2023/09/03 14:44:25;;;;;;;1.10;1.10;;;;;;;;;;4964641;28;20035;-71
2023/09/03 14:46:52;;;;;;;0.00;0.00;;;;;;;;;;4983015;28;20050;-71
2023/09/03 14:49:21;;;;;;;0.00;0.00;;;;;;;;;;4959312;28;20054;-73
2023/09/03 14:51:48;;;;;;;0.00;0.00;;;;;;;;;;4984167;28;20093;-72
2023/09/03 14:54:15;;;;;;;0.00;0.00;;;;;;;;;;4976185;28;20055;-72